Weather observations for the past three days for
Santa Ynez, Santa Ynez Airport
Imperial (Metric)
Date Time (pdt) Wind (mph) Vis. (mi.) Weather Sky Cond. Temperature (ºF) Relative Humidity Wind Chill (°F) Heat Index (°F) Pressure Precipitation (in)
Air Dwpt 6 hour altimeter (in) sea level (mb) 1 hr 3 hr 6 hr
Max. Min.
05 10:55 SW 7 10.00 Fair CLR 75.2 59 57% 78 29.96 0.0
05 10:35 NW 5 10.00 Fair CLR 73.4 57.2 57% 29.96 0.0
05 10:15 Calm 10.00 Fair CLR 68 57.2 69% 29.96 0.0
05 09:55 Calm 10.00 Fair CLR 64.4 57.2 78% 29.96 0.0
05 09:35 Calm 10.00 A Few Clouds FEW004 59 59 100% 29.97 0.0
05 09:15 Calm 9.00 Overcast OVC003 57.2 57.2 100% 29.96 0.0
05 08:55 Calm 1.75 Fog/Mist OVC003 57.2 57.2 100% 29.96 0.0
05 08:35 Calm 0.25 Fog OVC003 55.4 55.4 100% 29.97 0.0
05 08:15 Calm 0.25 Fog OVC003 55.4 55.4 100% 29.96 0.0
05 07:55 Calm 0.25 Fog VV002 55.4 55.4 100% 29.96 0.0
05 07:35 Calm 0.15 Unknown Precip Fog BKN002 55.4 55.4 100% 29.96 0.0
05 07:15 Calm 0.15 Light Rain Fog OVC002 55.4 55.4 100% 29.95 0.0
05 06:55 Calm 0.15 Fog OVC001 55.4 55.4 100% 29.95 0.0
05 06:35 Calm 0.15 Fog OVC001 55.4 55.4 100% 29.94 0.0
05 06:15 Calm 0.25 Fog OVC002 55.4 55.4 100% 29.93 0.0
05 05:55 Calm 0.25 Fog OVC002 55.4 55.4 100% 29.93 0.0
05 05:35 Calm 0.25 Fog OVC002 55.4 55.4 100% 29.93 0.0
05 05:15 Calm 0.25 Fog OVC002 55.4 55.4 100% 29.93 0.0
05 04:55 Calm 0.75 Fog/Mist OVC002 55.4 55.4 100% 29.92 0.0
05 04:35 Calm 0.75 Fog/Mist OVC003 55.4 55.4 100% 29.93 0.0
05 04:15 Calm 1.75 Fog/Mist OVC003 55.4 55.4 100% 29.93 0.0
05 03:55 Calm 6.00 Fog/Mist OVC004 55.4 55.4 100% 29.93 0.0
05 03:35 Calm 10.00 Overcast OVC004 55.4 55.4 100% 29.93 0.0
05 03:15 Calm 10.00 Overcast OVC005 55.4 55.4 100% 29.94 0.0
05 02:55 Calm 10.00 Overcast OVC006 55.4 55.4 100% 29.94 0.0
05 02:35 Calm 10.00 Mostly Cloudy BKN006 55.4 55.4 100% 29.94 0.0
05 02:15 Calm 10.00 Partly Cloudy SCT005 55.4 55.4 100% 29.95 0.0
05 01:55 Calm 10.00 A Few Clouds FEW005 55.4 55.4 100% 29.95 0.0
05 01:35 Calm 10.00 Fair CLR 55.4 55.4 100% 29.95 0.0
05 01:15 Calm 10.00 Fair CLR 55.4 55.4 100% 29.95 0.0
05 00:55 Calm 10.00 Fair CLR 55.4 55.4 100% 29.96 0.0
05 00:35 Calm 10.00 Fair CLR 57.2 57.2 100% 29.96 0.0
05 00:15 Calm 10.00 Fair CLR 57.2 57.2 100% 29.96 0.0
04 23:55 Calm 10.00 Fair CLR 57.2 57.2 100% 29.95 0.0
04 23:35 Calm 10.00 Fair CLR 59 57.2 94% 29.95 0.0
04 23:15 Calm 10.00 Fair CLR 59 57.2 94% 29.95 0.0
04 22:55 Calm 10.00 Fair CLR 59 57.2 94% 29.95 0.0
04 22:35 Calm 10.00 Fair CLR 59 59 100% 29.95 0.0
04 22:15 Calm 10.00 Fair CLR 59 59 100% 29.96 0.0
04 21:55 Calm 10.00 Fair CLR 60.8 59 94% 29.96 0.0
04 21:35 Calm 10.00 Fair CLR 60.8 59 94% 29.95 0.0
04 21:15 Calm 10.00 Fair CLR 60.8 59 94% 29.95 0.0
04 20:55 SW 7 10.00 Fair CLR 62.6 59 88% 29.95 0.0
04 20:35 W 7 10.00 Fair CLR 62.6 59 88% 29.94 0.0
04 20:15 W 5 10.00 Fair CLR 64.4 59 83% 29.93 0.0
04 19:55 W 9 10.00 Fair CLR 66.2 59 78% 29.92 0.0
04 19:35 W 10 10.00 Fair CLR 68 57.2 69% 29.92 0.0
04 19:15 W 10 10.00 Fair CLR 69.8 57.2 64% 29.91 0.0
04 18:55 W 9 10.00 Fair CLR 71.6 57.2 61% 29.91 0.0
04 18:35 W 9 10.00 Fair CLR 71.6 57.2 61% 29.91 0.0
04 18:15 W 13 10.00 Fair CLR 73.4 59 61% 29.91 0.0
04 17:55 W 14 10.00 Fair CLR 75.2 59 57% 78 29.9 0.0
04 17:35 NW 15 10.00 Fair CLR 77 59 54% 79 29.9 0.0
04 17:15 W 14 10.00 Fair CLR 77 59 54% 79 29.9 0.0
04 16:55 W 13 G 18 10.00 Fair CLR 78.8 59 51% 80 29.9 0.0
04 16:35 W 15 10.00 Fair CLR 80.6 59 48% 81 29.9 0.0
04 16:15 W 9 G 16 10.00 Fair CLR 80.6 59 48% 81 29.89 0.0
04 15:55 SW 13 10.00 Fair CLR 80.6 59 48% 81 29.89 0.0
04 15:35 SW 13 10.00 Fair CLR 80.6 57.2 45% 81 29.9 0.0
04 15:15 SW 9 G 20 10.00 Fair CLR 82.4 57.2 42% 82 29.9 0.0
04 14:55 SW 12 10.00 Fair CLR 82.4 57.2 42% 82 29.9 0.0
04 14:35 W 10 10.00 Fair CLR 82.4 55.4 40% 82 29.89 0.0
04 14:15 SW 9 10.00 Fair CLR 82.4 50 32% 81 29.9 0.0
04 13:55 Calm 10.00 Fair CLR 82.4 48.2 30% 81 29.91 0.0
04 13:35 W 7 10.00 Fair CLR 80.6 48.2 32% 80 29.91 0.0
04 13:15 Vrbl 6 10.00 Fair CLR 80.6 46.4 30% 80 29.91 0.0
04 12:55 Vrbl 7 10.00 Fair CLR 78.8 48.2 34% 79 29.92 0.0
04 12:35 NW 6 10.00 Fair CLR 78.8 50 37% 79 29.92 0.0
04 12:15 Vrbl 6 10.00 Fair CLR 77 50 39% 78 29.93 0.0
04 11:35 NW 5 10.00 Fair CLR 73.4 53.6 50% 29.95 0.0
04 11:15 N 3 10.00 Fair CLR 71.6 53.6 53% 29.96 0.0
04 10:55 Vrbl 3 10.00 Fair CLR 69.8 55.4 60% 29.96 0.0
04 10:35 Calm 10.00 Fair CLR 68 55.4 64% 29.97 0.0
04 10:15 Vrbl 3 10.00 Fair CLR 66.2 55.4 68% 29.97 0.0
04 09:55 E 6 8.00 A Few Clouds FEW018 66.2 55.4 68% 29.97 0.0
04 09:35 Vrbl 7 10.00 Mostly Cloudy BKN017 64.4 55.4 73% 29.97 0.0
04 09:15 Vrbl 3 10.00 Overcast OVC016 62.6 55.4 77% 29.96 0.0
04 08:55 Vrbl 3 10.00 Overcast OVC016 62.6 55.4 77% 29.96 0.0
04 08:35 Calm 10.00 Overcast OVC016 62.6 55.4 77% 29.96 0.0
04 08:15 S 5 10.00 Overcast OVC015 60.8 55.4 83% 29.96 0.0
04 07:55 E 3 10.00 Overcast OVC015 60.8 55.4 83% 29.95 0.0
04 07:35 Calm 10.00 Overcast OVC015 60.8 55.4 83% 29.95 0.0
04 07:15 Calm 10.00 Overcast OVC015 60.8 55.4 83% 29.94 0.0
04 06:55 Calm 10.00 Overcast OVC015 59 55.4 88% 29.94 0.0
04 06:35 Calm 10.00 Overcast OVC015 59 55.4 88% 29.94 0.0
04 06:15 SE 6 10.00 Overcast OVC015 59 55.4 88% 29.93 0.0
04 05:55 SE 5 10.00 Overcast OVC015 59 55.4 88% 29.93 0.0
04 05:35 Calm 10.00 Overcast OVC014 59 55.4 88% 29.93 0.0
04 05:15 Calm 10.00 Overcast OVC014 59 55.4 88% 29.93 0.0
04 04:55 Calm 10.00 Overcast OVC014 59 55.4 88% 29.93 0.0
04 04:35 Calm 10.00 Overcast OVC016 59 55.4 88% 29.93 0.0
04 04:15 E 3 10.00 Mostly Cloudy BKN017 BKN025 57.2 55.4 94% 29.92 0.0
04 03:55 E 3 10.00 A Few Clouds FEW014 57.2 55.4 94% 29.93 0.0
04 03:35 Calm 10.00 Fair CLR 57.2 55.4 94% 29.92 0.0
04 03:15 Calm 10.00 Mostly Cloudy BKN014 59 55.4 88% 29.92 0.0
04 02:55 E 3 10.00 Overcast OVC014 59 55.4 88% 29.92 0.0
04 02:35 SE 3 10.00 Mostly Cloudy BKN015 BKN019 59 57.2 94% 29.92 0.0
04 02:15 Calm 10.00 Overcast OVC014 59 57.2 94% 29.92 0.0
04 01:55 Calm 10.00 Overcast OVC012 60.8 57.2 88% 29.92 0.0
04 01:35 Calm 10.00 Overcast OVC012 60.8 57.2 88% 29.93 0.0
04 01:15 Calm 10.00 Overcast OVC012 60.8 55.4 83% 29.93 0.0
04 00:55 Calm 10.00 Overcast OVC012 60.8 57.2 88% 29.93 0.0
04 00:35 SW 5 10.00 Overcast OVC013 60.8 57.2 88% 29.93 0.0
04 00:15 Calm 10.00 Overcast OVC013 60.8 57.2 88% 29.93 0.0
03 23:55 Calm 10.00 Overcast OVC013 60.8 57.2 88% 29.93 0.0
03 23:35 Calm 10.00 Overcast OVC013 60.8 57.2 88% 29.93 0.0
03 23:15 Calm 10.00 Overcast OVC012 60.8 57.2 88% 29.93 0.0
03 22:55 Calm 10.00 Overcast OVC012 59 57.2 94% 29.93 0.0
03 22:35 Calm 10.00 Overcast OVC011 59 57.2 94% 29.93 0.0
03 22:15 Calm 10.00 Partly Cloudy SCT013 59 57.2 94% 29.94 0.0
03 21:55 Calm 10.00 Fair CLR 59 57.2 94% 29.94 0.0
03 21:35 W 5 10.00 Fair CLR 59 57.2 94% 29.93 0.0
03 21:15 W 7 10.00 Fair CLR 60.8 57.2 88% 29.93 0.0
03 20:55 W 8 10.00 Fair CLR 60.8 57.2 88% 29.92 0.0
03 20:35 W 9 10.00 Fair CLR 60.8 57.2 88% 29.92 0.0
03 20:15 W 8 G 15 10.00 Fair CLR 62.6 57.2 83% 29.91 0.0
03 19:55 W 12 10.00 Fair CLR 62.6 55.4 77% 29.9 0.0
03 19:35 W 8 G 14 10.00 Fair CLR 64.4 55.4 73% 29.9 0.0
03 19:15 W 6 G 14 10.00 Fair CLR 66.2 55.4 68% 29.9 0.0
03 18:55 W 10 10.00 Fair CLR 68 55.4 64% 29.9 0.0
03 18:35 W 10 10.00 Fair CLR 69.8 55.4 60% 29.9 0.0
03 18:15 W 13 G 20 10.00 Fair CLR 71.6 55.4 57% 29.9 0.0
03 17:55 W 12 G 18 10.00 Fair CLR 71.6 55.4 57% 29.89 0.0
03 17:35 W 12 G 20 10.00 Fair CLR 73.4 55.4 53% 29.89 0.0
03 17:15 W 14 10.00 Fair CLR 75.2 55.4 50% 78 29.89 0.0
03 16:55 W 14 G 20 10.00 Fair CLR 75.2 55.4 50% 78 29.89 0.0
03 16:35 W 14 G 21 10.00 Fair CLR 75.2 55.4 50% 78 29.89 0.0
03 16:15 W 14 10.00 Fair CLR 77 55.4 47% 79 29.89 0.0
03 15:55 W 10 G 18 10.00 Fair CLR 77 57.2 51% 79 29.9 0.0
03 15:35 W 14 G 22 10.00 Fair CLR 77 57.2 51% 79 29.91 0.0
03 15:15 W 14 10.00 Fair CLR 77 57.2 51% 79 29.91 0.0
03 14:55 W 13 G 18 10.00 Fair CLR 77 57.2 51% 79 29.91 0.0
03 14:35 W 16 10.00 Fair CLR 78.8 57.2 48% 80 29.92 0.0
03 14:15 W 15 10.00 Fair CLR 78.8 57.2 48% 80 29.92 0.0
03 13:55 W 12 10.00 Fair CLR 78.8 55.4 45% 79 29.92 0.0
03 13:35 W 13 10.00 Fair CLR 78.8 55.4 45% 79 29.93 0.0
03 13:15 NW 9 10.00 Fair CLR 77 55.4 47% 79 29.93 0.0
03 12:55 SW 9 10.00 Fair CLR 75.2 55.4 50% 78 29.94 0.0
03 12:35 Vrbl 5 G 12 10.00 Fair CLR 73.4 55.4 53% 29.95 0.0
03 12:15 Vrbl 6 10.00 Fair CLR 73.4 55.4 53% 29.95 0.0
03 11:55 Vrbl 5 10.00 Fair CLR 71.6 55.4 57% 29.96 0.0
03 11:35 SW 6 10.00 Fair CLR 69.8 55.4 60% 29.97 0.0
03 11:15 NW 7 10.00 Fair CLR 68 55.4 64% 29.97 0.0
03 10:55 W 6 10.00 Fair CLR 66.2 55.4 68% 29.98 0.0
03 10:35 NW 3 10.00 Fair CLR 64.4 55.4 73% 29.98 0.0
03 10:15 Calm 10.00 Partly Cloudy SCT015 64.4 55.4 73% 29.98 0.0
03 09:55 Vrbl 5 10.00 Overcast OVC014 62.6 55.4 77% 29.98 0.0
03 09:35 Calm 10.00 Overcast OVC013 60.8 55.4 83% 29.99 0.0
03 09:15 Calm 10.00 Overcast OVC013 59 55.4 88% 29.99 0.0
03 08:55 Calm 10.00 Overcast OVC013 59 55.4 88% 30 0.0
03 08:35 SW 3 10.00 Overcast OVC013 59 55.4 88% 30 0.0
03 08:15 Calm 10.00 Overcast OVC013 59 55.4 88% 30 0.0
03 07:55 SW 6 10.00 Overcast OVC013 57.2 55.4 94% 30 0.0
03 07:35 SW 3 10.00 Overcast OVC013 59 55.4 88% 29.99 0.0
03 07:15 Calm 10.00 Overcast OVC014 57.2 55.4 94% 29.99 0.0
03 06:55 Calm 10.00 Overcast OVC015 57.2 55.4 94% 29.98 0.0
03 06:35 Calm 10.00 Overcast OVC016 57.2 55.4 94% 29.98 0.0
03 06:15 Calm 10.00 Overcast OVC015 57.2 55.4 94% 29.98 0.0
03 05:55 W 3 10.00 Overcast OVC015 57.2 55.4 94% 29.98 0.0
03 05:35 Calm 10.00 Overcast OVC015 57.2 55.4 94% 29.98 0.0
03 05:15 Calm 10.00 Overcast OVC017 57.2 55.4 94% 29.99 0.0
03 04:55 Calm 10.00 Overcast OVC016 57.2 55.4 94% 29.99 0.0
03 04:35 Calm 10.00 Overcast OVC014 57.2 55.4 94% 29.99 0.0
03 04:15 Calm 10.00 Overcast OVC016 57.2 55.4 94% 29.99 0.0
03 03:55 W 5 10.00 Overcast OVC015 57.2 55.4 94% 29.99 0.0
03 03:35 Calm 10.00 Overcast OVC013 57.2 55.4 94% 29.99 0.0
03 03:15 NW 3 10.00 Mostly Cloudy BKN013 57.2 55.4 94% 30 0.0
03 02:55 Calm 10.00 Partly Cloudy SCT013 SCT038 57.2 55.4 94% 30 0.0
03 02:35 NW 3 10.00 A Few Clouds FEW013 59 55.4 88% 30 0.0
03 02:15 NW 5 10.00 Fair CLR 59 55.4 88% 30 0.0
03 01:55 NW 5 10.00 Mostly Cloudy BKN014 59 57.2 94% 30.01 0.0
03 01:35 W 6 10.00 Overcast OVC013 60.8 57.2 88% 30.01 0.0
03 01:15 W 6 10.00 Overcast OVC011 60.8 57.2 88% 30.01 0.0
03 00:55 Calm 10.00 Overcast OVC010 60.8 59 94% 30.02 0.0
03 00:35 SW 3 10.00 Overcast OVC011 60.8 59 94% 30.02 0.0
03 00:15 Calm 10.00 Overcast OVC009 60.8 59 94% 30.02 0.0
02 23:55 Calm 10.00 Overcast OVC009 60.8 59 94% 30.02 0.0
02 23:35 W 6 10.00 Overcast OVC009 60.8 59 94% 30.02 0.0
02 23:15 Calm 10.00 Mostly Cloudy BKN012 59 59 100% 30.02 0.0
02 22:55 W 3 10.00 A Few Clouds FEW012 59 59 100% 30.02 0.0
02 22:35 W 5 10.00 Fair CLR 59 57.2 94% 30.02 0.0
02 22:15 SW 5 10.00 Fair CLR 59 57.2 94% 30.02 0.0
02 21:55 SW 5 10.00 Fair CLR 60.8 59 94% 30.03 0.0
02 21:35 W 7 10.00 Fair CLR 60.8 59 94% 30.03 0.0
02 21:15 W 7 10.00 Fair CLR 62.6 59 88% 30.02 0.0
02 20:55 W 7 10.00 Fair CLR 62.6 59 88% 30.02 0.0
02 20:35 W 7 10.00 Fair CLR 64.4 57.2 78% 30.01 0.0
02 20:15 SW 7 10.00 Fair CLR 64.4 57.2 78% 30 0.0
02 19:55 SW 6 10.00 Fair CLR 66.2 57.2 73% 30 0.0
02 19:35 SW 7 10.00 Fair CLR 66.2 57.2 73% 30 0.0
02 19:15 W 8 10.00 Fair CLR 68 55.4 64% 29.99 0.0
02 18:55 W 12 10.00 Fair CLR 71.6 51.8 50% 29.99 0.0
02 18:35 W 13 10.00 Fair CLR 73.4 51.8 47% 29.99 0.0
02 18:15 W 13 G 18 10.00 Fair CLR 75.2 50 41% 78 29.99 0.0
02 17:55 NW 14 G 20 10.00 Fair CLR 75.2 50 41% 78 29.99 0.0
02 17:35 NW 15 10.00 Fair CLR 77 50 39% 78 29.98 0.0
02 17:15 NW 10 G 18 10.00 Fair CLR 77 50 39% 78 29.98 0.0
02 16:55 NW 15 G 22 10.00 Fair CLR 77 50 39% 78 29.98 0.0
02 16:35 NW 16 10.00 Fair CLR 78.8 50 37% 79 29.98 0.0
02 16:15 NW 18 10.00 Fair CLR 80.6 48.2 32% 80 29.98 0.0
02 15:55 W 12 10.00 Fair CLR 80.6 50 34% 80 29.98 0.0
02 15:35 W 16 10.00 Fair CLR 78.8 51.8 39% 79 29.98 0.0
02 15:15 W 17 10.00 Fair CLR 80.6 51.8 37% 80 29.99 0.0
02 14:55 W 18 10.00 Fair CLR 78.8 51.8 39% 79 29.99 0.0
02 14:35 W 17 10.00 Fair CLR 80.6 51.8 37% 80 30 0.0
02 14:15 W 16 10.00 Fair CLR 80.6 50 34% 80 30 0.0
02 13:55 W 14 10.00 Fair CLR 78.8 50 37% 79 30 0.0
02 13:35 W 12 10.00 Fair CLR 78.8 50 37% 79 30.01 0.0
02 13:15 Vrbl 6 G 12 10.00 Fair CLR 78.8 48.2 34% 79 30.01 0.0
Date Time (pdt) Wind (mph) Vis. (mi.) Weather Sky Cond. Air Dwpt Max. Min. Relative Humidity Wind Chill (°F) Heat Index (°F) altimeter (in) sea level (mb) 1 hr 3 hr 6 hr
6 hour
Temperature (ºF) Pressure Precipitation (in)